Time;durP1;ratioP1;P1;durP2;ratioP2;P2;SDS_P1;SDS_P2;PMS_P1;PMS_P2;Temp;Humidity;BMP_temperature;BMP_pressure;BME280_temperature;BME280_humidity;BME280_pressure;Samples;Min_cycle;Max_cycle;Signal;HPM_P1;HPM_P2
2021/11/18 00:00:37;;;;;;;;;;;20.70;62.20;;;;;;5011710;28;1321;-70
2021/11/18 00:03:03;;;;;;;;;;;20.70;62.20;;;;;;5016940;28;1285;-70
2021/11/18 00:05:29;;;;;;;;;;;20.60;62.20;;;;;;5027723;28;1248;-70
2021/11/18 00:07:54;;;;;;;;;;;20.70;62.30;;;;;;5031687;28;1258;-70
2021/11/18 00:10:24;;;;;;;;;;;20.60;62.20;;;;;;5031594;28;1332;-70
2021/11/18 00:12:50;;;;;;;;;;;20.70;62.30;;;;;;5030442;28;1256;-70
2021/11/18 00:15:15;;;;;;;;;;;20.70;62.30;;;;;;5031492;28;1309;-70
2021/11/18 00:17:40;;;;;;;;;;;20.70;62.40;;;;;;5030907;28;1887;-70
2021/11/18 00:20:07;;;;;;;;;;;20.70;62.40;;;;;;5030677;28;1146;-70
2021/11/18 00:22:32;;;;;;;;;;;20.60;62.40;;;;;;5011972;28;1307;-70
2021/11/18 00:24:58;;;;;;;;;;;20.60;62.40;;;;;;5012336;28;1440;-70
2021/11/18 00:27:23;;;;;;;;;;;20.60;62.40;;;;;;5012158;28;1337;-70
2021/11/18 00:29:49;;;;;;;;;;;20.60;62.40;;;;;;5012915;28;1152;-70
2021/11/18 00:32:14;;;;;;;;;;;20.60;62.40;;;;;;5012665;28;1416;-70
2021/11/18 00:34:40;;;;;;;;;;;20.60;62.50;;;;;;5012504;28;1355;-70
2021/11/18 00:37:05;;;;;;;;;;;20.60;62.50;;;;;;5012526;28;1906;-70
2021/11/18 00:39:31;;;;;;;;;;;20.60;62.50;;;;;;5012791;28;985;-70
2021/11/18 00:41:56;;;;;;;;;;;20.60;62.50;;;;;;5011332;28;1171;-70
2021/11/18 00:44:22;;;;;;;;;;;20.60;62.50;;;;;;5012807;28;1272;-70
2021/11/18 00:46:47;;;;;;;;;;;20.60;62.60;;;;;;5011162;28;1347;-70
2021/11/18 00:49:12;;;;;;;;;;;20.60;62.70;;;;;;5012603;28;1148;-69
2021/11/18 00:51:39;;;;;;;;;;;20.60;62.70;;;;;;5011257;28;1248;-70
2021/11/18 00:54:05;;;;;;;;;;;20.60;62.70;;;;;;5010807;28;1286;-69
2021/11/18 00:56:31;;;;;;;;;;;20.60;62.70;;;;;;5012457;28;1324;-68
2021/11/18 00:58:56;;;;;;;;;;;20.60;62.70;;;;;;5012851;28;1961;-68
2021/11/18 01:01:23;;;;;;;;;;;20.50;62.70;;;;;;5010513;28;1053;-68
2021/11/18 01:03:48;;;;;;;;;;;20.50;62.70;;;;;;5012315;28;1315;-68
2021/11/18 01:06:13;;;;;;;;;;;20.50;62.70;;;;;;5012601;28;1311;-68
2021/11/18 01:08:39;;;;;;;;;;;20.50;62.70;;;;;;5012583;28;1337;-68
2021/11/18 01:11:12;;;;;;;;;;;20.50;62.80;;;;;;5010059;28;1338;-68
2021/11/18 01:13:38;;;;;;;;;;;20.50;62.80;;;;;;5009941;28;1343;-68
2021/11/18 01:16:04;;;;;;;;;;;20.50;62.80;;;;;;5014202;28;1287;-68
2021/11/18 01:18:30;;;;;;;;;;;20.50;62.80;;;;;;5031886;28;1910;-69
2021/11/18 01:20:55;;;;;;;;;;;20.50;62.80;;;;;;5021169;28;1381;-68
2021/11/18 01:23:22;;;;;;;;;;;20.50;62.90;;;;;;5011373;28;1127;-68
2021/11/18 01:25:48;;;;;;;;;;;20.50;62.90;;;;;;5010533;28;1291;-68
2021/11/18 01:28:13;;;;;;;;;;;20.50;62.90;;;;;;5012505;28;1392;-68
2021/11/18 01:30:39;;;;;;;;;;;20.50;62.90;;;;;;5012311;28;1345;-70
2021/11/18 01:33:05;;;;;;;;;;;20.50;62.90;;;;;;5010007;28;1315;-70
2021/11/18 01:35:31;;;;;;;;;;;20.50;62.90;;;;;;5017315;28;1403;-69
2021/11/18 01:37:56;;;;;;;;;;;20.50;63.70;;;;;;5009200;28;1910;-70
2021/11/18 01:40:23;;;;;;;;;;;20.50;63.00;;;;;;5016804;28;1272;-70
2021/11/18 01:42:48;;;;;;;;;;;20.50;63.00;;;;;;5003175;28;1150;-70
2021/11/18 01:45:14;;;;;;;;;;;20.40;62.90;;;;;;5015303;28;1306;-70
2021/11/18 01:47:40;;;;;;;;;;;20.40;62.90;;;;;;5015582;28;1132;-70
2021/11/18 01:50:06;;;;;;;;;;;20.40;63.00;;;;;;5014448;28;1076;-70
2021/11/18 01:52:33;;;;;;;;;;;20.40;63.00;;;;;;5011722;28;1359;-69
2021/11/18 01:54:59;;;;;;;;;;;20.40;63.00;;;;;;5010838;28;1351;-70
2021/11/18 01:57:27;;;;;;;;;;;20.40;63.00;;;;;;5030702;28;1959;-69
2021/11/18 01:59:52;;;;;;;;;;;20.40;63.00;;;;;;5034782;28;1274;-69
2021/11/18 02:02:18;;;;;;;;;;;20.40;63.00;;;;;;5032996;28;1096;-69
2021/11/18 02:04:54;;;;;;;;;;;20.40;63.00;;;;;;5033861;28;1355;-69
2021/11/18 02:07:19;;;;;;;;;;;20.40;63.10;;;;;;5033638;28;1419;-70
2021/11/18 02:09:45;;;;;;;;;;;20.40;63.10;;;;;;5014357;28;1069;-69
2021/11/18 02:12:12;;;;;;;;;;;20.40;63.10;;;;;;5014090;28;1319;-69
2021/11/18 02:14:37;;;;;;;;;;;20.40;63.10;;;;;;5014072;28;1309;-69
2021/11/18 02:17:03;;;;;;;;;;;20.40;63.90;;;;;;5024223;28;1956;-70
2021/11/18 02:19:33;;;;;;;;;;;20.40;63.10;;;;;;5007364;28;1135;-70
2021/11/18 02:21:58;;;;;;;;;;;20.40;63.10;;;;;;5013942;28;1412;-71
2021/11/18 02:24:29;;;;;;;;;;;20.40;63.20;;;;;;5014663;28;1135;-70
2021/11/18 02:26:54;;;;;;;;;;;20.40;63.20;;;;;;5001917;28;1214;-70
2021/11/18 02:29:20;;;;;;;;;;;20.40;63.20;;;;;;5030130;28;1249;-70
2021/11/18 02:31:50;;;;;;;;;;;20.40;63.20;;;;;;5014003;28;1347;-70
2021/11/18 02:34:18;;;;;;;;;;;20.40;63.20;;;;;;5012926;28;1286;-70
2021/11/18 02:36:44;;;;;;;;;;;20.40;63.20;;;;;;5014483;28;1274;-70
2021/11/18 02:39:09;;;;;;;;;;;20.40;63.20;;;;;;5013115;28;1911;-70
2021/11/18 02:41:35;;;;;;;;;;;20.40;63.20;;;;;;5014498;28;1214;-70
2021/11/18 02:44:00;;;;;;;;;;;20.40;63.10;;;;;;5014854;28;1361;-70
2021/11/18 02:46:26;;;;;;;;;;;20.40;63.10;;;;;;5012786;28;1325;-69
2021/11/18 02:48:51;;;;;;;;;;;20.40;63.10;;;;;;5028700;28;1330;-69
2021/11/18 02:51:17;;;;;;;;;;;20.40;63.00;;;;;;5032686;28;1269;-70
2021/11/18 02:53:42;;;;;;;;;;;20.40;62.90;;;;;;5032194;28;1295;-70
2021/11/18 02:56:08;;;;;;;;;;;20.50;62.90;;;;;;5034070;28;1347;-69
2021/11/18 02:58:33;;;;;;;;;;;20.50;62.80;;;;;;5033913;28;1965;-69
2021/11/18 03:01:03;;;;;;;;;;;20.50;62.70;;;;;;5023742;28;1196;-71
2021/11/18 03:03:29;;;;;;;;;;;20.50;62.60;;;;;;5012153;28;1372;-70
2021/11/18 03:05:55;;;;;;;;;;;20.50;62.50;;;;;;5013867;28;1590;-71
2021/11/18 03:08:22;;;;;;;;;;;20.60;62.50;;;;;;5014144;28;1280;-70
2021/11/18 03:10:48;;;;;;;;;;;20.60;62.50;;;;;;5014428;28;990;-70
2021/11/18 03:13:13;;;;;;;;;;;20.60;62.40;;;;;;5013273;28;1303;-70
2021/11/18 03:15:39;;;;;;;;;;;20.60;62.30;;;;;;5014318;28;1411;-70
2021/11/18 03:18:04;;;;;;;;;;;20.60;62.30;;;;;;5013052;28;1906;-70
2021/11/18 03:20:30;;;;;;;;;;;20.60;62.20;;;;;;5011434;28;1241;-70
2021/11/18 03:22:56;;;;;;;;;;;20.60;62.20;;;;;;5012923;28;1252;-70
2021/11/18 03:25:23;;;;;;;;;;;20.70;62.20;;;;;;5011725;28;1284;-70
2021/11/18 03:27:48;;;;;;;;;;;20.60;62.10;;;;;;5013084;28;1264;-71
2021/11/18 03:30:15;;;;;;;;;;;20.70;62.10;;;;;;5012409;28;1252;-70
2021/11/18 03:32:40;;;;;;;;;;;20.60;62.10;;;;;;5010896;28;1197;-70
2021/11/18 03:35:06;;;;;;;;;;;20.60;62.00;;;;;;5012380;28;1297;-71
2021/11/18 03:37:31;;;;;;;;;;;20.60;62.80;;;;;;5013114;28;1910;-70
2021/11/18 03:39:56;;;;;;;;;;;20.70;62.00;;;;;;5013136;28;1351;-70
2021/11/18 03:42:22;;;;;;;;;;;20.70;62.00;;;;;;5012605;28;1301;-70
2021/11/18 03:44:47;;;;;;;;;;;20.70;62.00;;;;;;5013560;28;1305;-70
2021/11/18 03:47:13;;;;;;;;;;;20.70;62.00;;;;;;5027231;28;1352;-70
2021/11/18 03:49:39;;;;;;;;;;;20.70;62.00;;;;;;5032157;28;1351;-71
2021/11/18 03:52:05;;;;;;;;;;;20.70;61.90;;;;;;5033270;28;1643;-70
2021/11/18 03:54:31;;;;;;;;;;;20.70;61.90;;;;;;5033129;28;1299;-70
2021/11/18 03:56:56;;;;;;;;;;;20.70;61.90;;;;;;5032116;28;1217;-70
2021/11/18 03:59:23;;;;;;;;;;;20.70;61.90;;;;;;5032151;28;1955;-70
2021/11/18 04:01:48;;;;;;;;;;;20.70;61.90;;;;;;5029611;28;1192;-70
2021/11/18 04:04:15;;;;;;;;;;;20.70;61.90;;;;;;5033065;28;1083;-70
2021/11/18 04:06:40;;;;;;;;;;;20.70;61.90;;;;;;5031591;28;1312;-71
2021/11/18 04:09:06;;;;;;;;;;;20.70;61.80;;;;;;5033546;28;1428;-70
2021/11/18 04:11:32;;;;;;;;;;;20.70;61.80;;;;;;5032264;28;1063;-71
2021/11/18 04:13:57;;;;;;;;;;;20.70;61.80;;;;;;5033026;28;1283;-71
2021/11/18 04:16:22;;;;;;;;;;;20.70;61.80;;;;;;5017249;28;1217;-71
2021/11/18 04:18:48;;;;;;;;;;;20.70;61.80;;;;;;5013109;28;1894;-71
2021/11/18 04:21:13;;;;;;;;;;;20.70;62.50;;;;;;5012227;28;1301;-71
2021/11/18 04:23:39;;;;;;;;;;;20.70;61.80;;;;;;5012086;28;1352;-71
2021/11/18 04:26:04;;;;;;;;;;;20.70;61.80;;;;;;5013106;28;1384;-71
2021/11/18 04:28:30;;;;;;;;;;;20.70;61.80;;;;;;5011755;28;1292;-71
2021/11/18 04:30:57;;;;;;;;;;;20.70;61.80;;;;;;5009532;28;1152;-70
2021/11/18 04:33:23;;;;;;;;;;;20.70;61.80;;;;;;5012523;28;1370;-70
2021/11/18 04:35:49;;;;;;;;;;;20.70;61.80;;;;;;5011334;28;1354;-70
2021/11/18 04:38:14;;;;;;;;;;;20.70;61.80;;;;;;5012801;28;1894;-70
2021/11/18 04:40:39;;;;;;;;;;;20.70;61.80;;;;;;5011665;28;1333;-70
2021/11/18 04:43:05;;;;;;;;;;;20.70;61.80;;;;;;5010452;28;1272;-70
2021/11/18 04:45:31;;;;;;;;;;;20.70;61.80;;;;;;5014512;28;1331;-70
2021/11/18 04:47:56;;;;;;;;;;;20.70;61.80;;;;;;5032535;28;1143;-70
2021/11/18 04:50:22;;;;;;;;;;;20.70;61.70;;;;;;5032458;28;1317;-70
2021/11/18 04:52:47;;;;;;;;;;;20.70;61.70;;;;;;5031462;28;1480;-70
2021/11/18 04:55:13;;;;;;;;;;;20.70;61.70;;;;;;5032532;28;1309;-70
2021/11/18 04:57:38;;;;;;;;;;;20.70;61.70;;;;;;5032508;28;1891;-69
2021/11/18 05:00:15;;;;;;;;;;;20.70;61.70;;;;;;5031268;28;1389;-70
2021/11/18 05:02:40;;;;;;;;;;;20.70;61.70;;;;;;5030389;28;1365;-70
2021/11/18 05:05:06;;;;;;;;;;;20.70;61.70;;;;;;5031263;28;1287;-69
2021/11/18 05:07:31;;;;;;;;;;;20.70;61.70;;;;;;5030527;28;1139;-70
2021/11/18 05:09:57;;;;;;;;;;;20.70;61.70;;;;;;5032421;28;1979;-69
2021/11/18 05:12:22;;;;;;;;;;;20.70;61.70;;;;;;5032726;28;1248;-70
2021/11/18 05:14:47;;;;;;;;;;;20.70;61.70;;;;;;5036407;28;1340;-70
2021/11/18 05:17:13;;;;;;;;;;;20.80;61.80;;;;;;5036285;28;2345;-70
2021/11/18 05:19:38;;;;;;;;;;;20.70;61.70;;;;;;5036163;28;1056;-70
2021/11/18 05:22:04;;;;;;;;;;;20.70;61.70;;;;;;5016657;28;1115;-70
2021/11/18 05:24:29;;;;;;;;;;;20.70;61.60;;;;;;5016594;28;1324;-70
2021/11/18 05:26:55;;;;;;;;;;;20.70;61.60;;;;;;5014803;28;1345;-70
2021/11/18 05:29:20;;;;;;;;;;;20.70;61.60;;;;;;5016268;28;1310;-70
2021/11/18 05:31:45;;;;;;;;;;;20.70;61.60;;;;;;5015817;28;985;-70
2021/11/18 05:34:11;;;;;;;;;;;20.70;61.60;;;;;;5016265;28;1240;-71
2021/11/18 05:36:36;;;;;;;;;;;20.80;61.70;;;;;;5015719;28;1189;-70
2021/11/18 05:39:02;;;;;;;;;;;20.70;61.60;;;;;;5015899;28;1965;-70
2021/11/18 05:41:28;;;;;;;;;;;20.70;61.60;;;;;;5015487;28;1277;-70
2021/11/18 05:43:53;;;;;;;;;;;20.70;61.60;;;;;;5015655;28;1410;-70
2021/11/18 05:46:19;;;;;;;;;;;20.70;61.70;;;;;;5015710;28;1239;-70
2021/11/18 05:48:45;;;;;;;;;;;20.70;61.60;;;;;;5014411;28;1152;-70
2021/11/18 05:51:10;;;;;;;;;;;20.80;61.70;;;;;;5014275;28;1384;-69
2021/11/18 05:53:38;;;;;;;;;;;20.70;61.60;;;;;;5015724;28;1204;-70
2021/11/18 05:56:05;;;;;;;;;;;20.70;61.60;;;;;;5015894;28;1471;-71
2021/11/18 05:58:30;;;;;;;;;;;20.70;61.70;;;;;;5014979;28;1914;-70
2021/11/18 06:00:56;;;;;;;;;;;20.70;62.40;;;;;;5015141;28;1037;-70
2021/11/18 06:03:21;;;;;;;;;;;20.70;61.60;;;;;;5014404;28;1370;-70
2021/11/18 06:05:47;;;;;;;;;;;20.70;61.60;;;;;;5014698;28;1208;-70
2021/11/18 06:08:12;;;;;;;;;;;20.70;61.60;;;;;;5015261;28;1100;-70
2021/11/18 06:10:38;;;;;;;;;;;20.70;61.60;;;;;;5015021;28;1336;-71
2021/11/18 06:13:04;;;;;;;;;;;20.70;61.60;;;;;;5013430;28;1364;-70
2021/11/18 06:15:29;;;;;;;;;;;20.70;61.60;;;;;;5014358;28;1317;-70
2021/11/18 06:17:55;;;;;;;;;;;20.70;61.60;;;;;;5015041;28;1961;-70
2021/11/18 06:20:20;;;;;;;;;;;20.70;61.60;;;;;;5014239;28;1349;-70
2021/11/18 06:22:46;;;;;;;;;;;20.70;61.60;;;;;;5015005;28;1245;-70
2021/11/18 06:25:12;;;;;;;;;;;20.80;61.70;;;;;;5014471;28;1342;-70
2021/11/18 06:27:38;;;;;;;;;;;20.70;61.60;;;;;;5013835;28;1202;-70
2021/11/18 06:30:05;;;;;;;;;;;20.70;61.60;;;;;;5014400;28;1124;-70
2021/11/18 06:32:30;;;;;;;;;;;20.70;61.50;;;;;;5014627;28;1320;-70
2021/11/18 06:34:57;;;;;;;;;;;20.70;61.60;;;;;;5021957;28;1312;-70
2021/11/18 06:37:23;;;;;;;;;;;20.80;61.70;;;;;;5034457;28;1906;-69
2021/11/18 06:39:48;;;;;;;;;;;20.70;61.50;;;;;;5034683;28;1369;-70
2021/11/18 06:42:14;;;;;;;;;;;20.80;61.60;;;;;;5006350;28;1069;-71
2021/11/18 06:44:40;;;;;;;;;;;20.70;61.60;;;;;;5015011;28;1244;-71
2021/11/18 06:47:05;;;;;;;;;;;20.80;61.60;;;;;;5014703;28;1341;-70
2021/11/18 06:49:31;;;;;;;;;;;20.70;61.50;;;;;;5013256;28;1069;-69
2021/11/18 06:51:56;;;;;;;;;;;20.70;61.50;;;;;;5013912;28;1362;-70
2021/11/18 06:54:22;;;;;;;;;;;20.80;61.60;;;;;;5012725;28;2140;-70
2021/11/18 06:56:47;;;;;;;;;;;20.70;61.50;;;;;;5013255;28;1861;-70
2021/11/18 06:59:13;;;;;;;;;;;20.70;61.50;;;;;;5012056;28;1894;-69
2021/11/18 07:01:38;;;;;;;;;;;20.80;61.60;;;;;;4995918;28;1442;-70
2021/11/18 07:04:07;;;;;;;;;;;20.70;61.50;;;;;;5013085;28;1321;-70
2021/11/18 07:06:33;;;;;;;;;;;20.70;61.50;;;;;;5009703;28;1481;-69
2021/11/18 07:08:59;;;;;;;;;;;20.70;61.50;;;;;;5011223;28;1390;-68
2021/11/18 07:11:25;;;;;;;;;;;20.70;61.50;;;;;;5031912;28;1349;-68
2021/11/18 07:13:51;;;;;;;;;;;20.80;61.60;;;;;;5026886;28;872;-68
2021/11/18 07:16:17;;;;;;;;;;;20.70;61.60;;;;;;5012552;28;1413;-68
2021/11/18 07:18:42;;;;;;;;;;;20.70;61.50;;;;;;5021503;28;1903;-68
2021/11/18 07:21:08;;;;;;;;;;;20.70;61.50;;;;;;5008789;28;1220;-68
2021/11/18 07:23:33;;;;;;;;;;;20.70;61.50;;;;;;5013897;28;1402;-68
2021/11/18 07:25:59;;;;;;;;;;;20.70;61.50;;;;;;5012602;28;1552;-68
2021/11/18 07:28:27;;;;;;;;;;;20.70;61.60;;;;;;5014002;28;1433;-67
2021/11/18 07:30:53;;;;;;;;;;;20.80;62.30;;;;;;5010666;28;1104;-67
2021/11/18 07:33:18;;;;;;;;;;;20.80;61.60;;;;;;5012537;28;1132;-68
2021/11/18 07:35:44;;;;;;;;;;;20.70;61.50;;;;;;5025583;28;1350;-70
2021/11/18 07:38:10;;;;;;;;;;;20.80;61.60;;;;;;5032385;28;1910;-69
2021/11/18 07:40:36;;;;;;;;;;;20.70;61.50;;;;;;5031349;28;1276;-70
2021/11/18 07:43:05;;;;;;;;;;;20.80;61.50;;;;;;4998696;28;1210;-69
2021/11/18 07:45:30;;;;;;;;;;;20.90;61.40;;;;;;5013443;28;1395;-69
2021/11/18 07:47:56;;;;;;;;;;;20.90;61.20;;;;;;5013734;28;1348;-69
2021/11/18 07:50:21;;;;;;;;;;;20.90;61.10;;;;;;5013745;28;1273;-72
2021/11/18 07:52:46;;;;;;;;;;;21.00;61.10;;;;;;5012687;28;1272;-72
2021/11/18 07:55:13;;;;;;;;;;;21.00;61.00;;;;;;5012207;28;1408;-72
2021/11/18 07:57:38;;;;;;;;;;;21.10;60.90;;;;;;5019341;28;1910;-72
2021/11/18 08:00:08;;;;;;;;;;;21.20;60.70;;;;;;5033479;28;1301;-71
2021/11/18 08:02:33;;;;;;;;;;;21.20;60.60;;;;;;5031815;28;1294;-72
2021/11/18 08:04:59;;;;;;;;;;;21.30;60.40;;;;;;5031240;28;1361;-71
2021/11/18 08:07:24;;;;;;;;;;;21.40;60.30;;;;;;5032948;28;1342;-71
2021/11/18 08:09:52;;;;;;;;;;;21.40;60.00;;;;;;5019914;28;950;-70
2021/11/18 08:12:18;;;;;;;;;;;21.50;59.90;;;;;;5012759;28;1159;-71
2021/11/18 08:14:44;;;;;;;;;;;21.60;59.70;;;;;;5011530;28;1316;-71
2021/11/18 08:17:09;;;;;;;;;;;21.60;59.60;;;;;;5012345;28;1879;-71
2021/11/18 08:19:35;;;;;;;;;;;21.70;59.40;;;;;;5012848;28;1276;-70
2021/11/18 08:22:00;;;;;;;;;;;21.80;59.30;;;;;;5012427;28;1329;-70
2021/11/18 08:24:26;;;;;;;;;;;21.80;59.20;;;;;;5013097;28;1365;-70
2021/11/18 08:26:51;;;;;;;;;;;21.90;59.10;;;;;;5011483;28;1375;-72
2021/11/18 08:29:18;;;;;;;;;;;21.90;59.00;;;;;;5012694;28;1263;-71
2021/11/18 08:31:43;;;;;;;;;;;21.90;58.90;;;;;;5012389;28;1316;-72
2021/11/18 08:34:09;;;;;;;;;;;22.00;58.80;;;;;;5011767;28;1389;-72
2021/11/18 08:36:37;;;;;;;;;;;22.00;58.70;;;;;;5012522;28;1318;-72
2021/11/18 08:39:09;;;;;;;;;;;22.00;58.70;;;;;;5011779;28;1973;-71
2021/11/18 08:41:34;;;;;;;;;;;22.10;58.70;;;;;;5012545;28;1017;-72
2021/11/18 08:43:59;;;;;;;;;;;22.10;58.60;;;;;;5012624;28;1305;-72
2021/11/18 08:46:25;;;;;;;;;;;22.10;58.50;;;;;;5012490;28;1275;-71
2021/11/18 08:48:50;;;;;;;;;;;22.10;58.50;;;;;;5012807;28;1089;-70
2021/11/18 08:51:17;;;;;;;;;;;22.20;58.40;;;;;;5011345;28;1331;-71
2021/11/18 08:53:43;;;;;;;;;;;22.20;58.40;;;;;;5012105;28;1331;-72
2021/11/18 08:56:08;;;;;;;;;;;22.20;58.40;;;;;;5012560;28;1350;-72
2021/11/18 08:58:42;;;;;;;;;;;22.20;58.30;;;;;;5012784;28;1898;-71
2021/11/18 09:01:10;;;;;;;;;;;22.30;58.40;;;;;;5011184;28;1390;-71
2021/11/18 09:03:35;;;;;;;;;;;22.30;58.30;;;;;;5010926;28;1538;-72
2021/11/18 09:06:02;;;;;;;;;;;22.30;58.30;;;;;;5011842;28;1343;-70
2021/11/18 09:08:27;;;;;;;;;;;22.30;58.20;;;;;;5011420;28;1273;-70
2021/11/18 09:10:53;;;;;;;;;;;22.30;58.20;;;;;;5010852;28;1454;-71
2021/11/18 09:13:18;;;;;;;;;;;22.40;58.20;;;;;;5012646;28;1041;-71
2021/11/18 09:15:44;;;;;;;;;;;22.40;58.20;;;;;;5012529;28;1299;-71
2021/11/18 09:18:09;;;;;;;;;;;22.40;58.20;;;;;;5011204;28;1902;-71
2021/11/18 09:20:35;;;;;;;;;;;22.40;58.20;;;;;;5012418;28;1151;-71
2021/11/18 09:23:00;;;;;;;;;;;22.40;58.10;;;;;;5011374;28;1358;-71
2021/11/18 09:25:27;;;;;;;;;;;22.40;58.10;;;;;;5012623;28;1315;-70
2021/11/18 09:27:53;;;;;;;;;;;22.40;58.10;;;;;;5012218;28;1270;-70
2021/11/18 09:30:26;;;;;;;;;;;22.40;58.10;;;;;;5011376;28;1093;-70
2021/11/18 09:32:51;;;;;;;;;;;22.40;58.10;;;;;;5015728;28;1735;-70
2021/11/18 09:35:18;;;;;;;;;;;22.40;58.00;;;;;;5011473;28;1919;-70
2021/11/18 09:37:43;;;;;;;;;;;22.40;58.00;;;;;;5010521;28;1902;-70
2021/11/18 09:40:10;;;;;;;;;;;22.50;58.10;;;;;;5011305;28;1935;-71
2021/11/18 09:43:06;;;;;;;;;;;22.50;58.10;;;;;;5000673;28;1096;-71
2021/11/18 09:45:31;;;;;;;;;;;22.50;58.00;;;;;;5008020;28;1378;-70
2021/11/18 09:48:12;;;;;;;;;;;22.50;58.10;;;;;;5011229;28;1289;-71
2021/11/18 09:50:57;;;;;;;;;;;22.50;58.60;;;;;;5012188;28;1323;-71
2021/11/18 09:53:45;;;;;;;;;;;22.50;58.10;;;;;;5012001;28;1363;-71
2021/11/18 09:56:23;;;;;;;;;;;22.50;58.00;;;;;;5005096;28;1363;-71
2021/11/18 09:58:54;;;;;;;;;;;22.50;58.10;;;;;;5008050;28;1961;-71
2021/11/18 10:01:43;;;;;;;;;;;22.50;58.00;;;;;;5023255;28;1090;-71
2021/11/18 10:04:28;;;;;;;;;;;22.50;58.00;;;;;;5001098;28;1428;-71
2021/11/18 10:06:55;;;;;;;;;;;22.50;58.10;;;;;;5013620;28;1376;-71
2021/11/18 10:09:29;;;;;;;;;;;22.50;58.00;;;;;;5013774;28;1298;-71
2021/11/18 10:11:59;;;;;;;;;;;22.50;58.00;;;;;;5014136;28;1276;-70
2021/11/18 10:14:37;;;;;;;;;;;22.50;58.00;;;;;;5012931;28;1373;-70
2021/11/18 10:17:13;;;;;;;;;;;22.50;58.00;;;;;;5014681;28;1372;-71
2021/11/18 10:19:46;;;;;;;;;;;22.50;57.90;;;;;;5013364;28;1972;-70
2021/11/18 10:22:12;;;;;;;;;;;22.50;57.90;;;;;;5013659;28;1155;-69
2021/11/18 10:24:38;;;;;;;;;;;22.50;58.00;;;;;;5014648;28;1313;-71
2021/11/18 10:27:09;;;;;;;;;;;22.50;58.00;;;;;;5048085;23;2058;-70
2021/11/18 10:29:36;;;;;;;;;;;22.50;58.00;;;;;;5029615;28;2189;-70
2021/11/18 10:32:12;;;;;;;;;;;22.60;58.10;;;;;;5027471;28;975;-70
2021/11/18 10:34:49;;;;;;;;;;;22.60;58.10;;;;;;5037609;28;1164;-70
2021/11/18 10:37:17;;;;;;;;;;;22.50;58.00;;;;;;5033881;28;1346;-71
2021/11/18 10:40:02;;;;;;;;;;;22.50;58.00;;;;;;5027077;28;1512;-70
2021/11/18 10:42:36;;;;;;;;;;;22.60;58.00;;;;;;5032593;28;1279;-70
2021/11/18 10:45:01;;;;;;;;;;;22.50;58.00;;;;;;5023697;28;1346;-69
2021/11/18 10:47:46;;;;;;;;;;;22.60;58.00;;;;;;5033779;28;1398;-71
2021/11/18 10:50:20;;;;;;;;;;;22.60;58.10;;;;;;5033036;28;1329;-70
2021/11/18 10:52:49;;;;;;;;;;;22.60;58.10;;;;;;5048478;28;1282;-71
2021/11/18 10:55:17;;;;;;;;;;;22.60;58.00;;;;;;5032490;28;1279;-71
2021/11/18 10:57:55;;;;;;;;;;;22.60;58.00;;;;;;5032458;28;1894;-71
2021/11/18 11:00:26;;;;;;;;;;;22.60;58.00;;;;;;5032985;28;1350;-70
2021/11/18 11:02:52;;;;;;;;;;;22.60;58.00;;;;;;5033300;28;1298;-70
2021/11/18 11:05:50;;;;;;;;;;;22.60;58.00;;;;;;5031988;28;1332;-71
2021/11/18 11:08:22;;;;;;;;;;;22.60;58.00;;;;;;5002465;28;1416;-70
2021/11/18 11:10:48;;;;;;;;;;;22.60;58.00;;;;;;5032257;28;1289;-71
2021/11/18 11:13:16;;;;;;;;;;;22.60;58.00;;;;;;5030006;28;1320;-70
2021/11/18 11:16:02;;;;;;;;;;;22.60;57.90;;;;;;5034005;28;1244;-70
2021/11/18 11:18:42;;;;;;;;;;;22.60;57.90;;;;;;5032538;28;1902;-70
2021/11/18 11:21:19;;;;;;;;;;;22.60;58.00;;;;;;5031834;28;1275;-71
2021/11/18 11:24:03;;;;;;;;;;;22.60;57.90;;;;;;5032370;28;1332;-70
2021/11/18 11:26:36;;;;;;;;;;;22.60;57.90;;;;;;5033685;28;1335;-70
2021/11/18 11:29:10;;;;;;;;;;;22.60;58.00;;;;;;5033503;28;1072;-68
2021/11/18 11:31:45;;;;;;;;;;;22.60;57.90;;;;;;5032939;28;1371;-70
2021/11/18 11:34:37;;;;;;;;;;;22.60;57.90;;;;;;5032009;28;1325;-71
2021/11/18 11:37:15;;;;;;;;;;;22.60;58.00;;;;;;5031523;28;1302;-70
2021/11/18 11:40:03;;;;;;;;;;;22.70;58.00;;;;;;5031879;28;1907;-70
2021/11/18 11:42:52;;;;;;;;;;;22.60;58.00;;;;;;5024600;28;1324;-71
2021/11/18 11:45:20;;;;;;;;;;;22.60;58.00;;;;;;5031960;28;1296;-71
2021/11/18 11:47:56;;;;;;;;;;;22.60;58.00;;;;;;5032248;28;1470;-71
2021/11/18 11:50:40;;;;;;;;;;;22.60;57.90;;;;;;5031880;28;1321;-71
2021/11/18 11:53:09;;;;;;;;;;;22.70;58.00;;;;;;5033126;28;1382;-71
2021/11/18 11:55:53;;;;;;;;;;;22.70;58.00;;;;;;5032887;28;1275;-70
2021/11/18 11:58:20;;;;;;;;;;;22.60;57.90;;;;;;5033529;28;1910;-70
2021/11/18 12:00:46;;;;;;;;;;;22.70;58.00;;;;;;5031447;28;1310;-70
2021/11/18 12:03:12;;;;;;;;;;;22.70;58.00;;;;;;5032557;28;1341;-71
2021/11/18 12:05:42;;;;;;;;;;;22.60;57.90;;;;;;5033239;28;1291;-71
2021/11/18 12:08:11;;;;;;;;;;;22.70;58.00;;;;;;5033392;28;1273;-71
2021/11/18 12:10:42;;;;;;;;;;;22.70;58.00;;;;;;5031667;28;1261;-71
2021/11/18 12:13:11;;;;;;;;;;;22.70;58.00;;;;;;5032320;28;1377;-71
2021/11/18 12:15:42;;;;;;;;;;;22.70;58.00;;;;;;5032408;28;1287;-71
2021/11/18 12:18:10;;;;;;;;;;;22.70;58.00;;;;;;5031598;28;1902;-71
2021/11/18 12:20:36;;;;;;;;;;;22.70;58.00;;;;;;5031414;28;1393;-71
2021/11/18 12:23:06;;;;;;;;;;;22.70;58.00;;;;;;5030406;28;1324;-70
2021/11/18 12:26:01;;;;;;;;;;;22.70;58.00;;;;;;5030198;28;2023;-70
2021/11/18 12:28:29;;;;;;;;;;;22.70;58.00;;;;;;5031537;28;2232;-67
2021/11/18 12:31:02;;;;;;;;;;;22.70;58.00;;;;;;5013223;28;1154;-68
2021/11/18 12:33:27;;;;;;;;;;;22.70;58.00;;;;;;5019013;28;1080;-68
2021/11/18 12:36:01;;;;;;;;;;;22.70;58.10;;;;;;5019039;28;1275;-67
2021/11/18 12:38:32;;;;;;;;;;;22.70;58.00;;;;;;5032126;28;1965;-67
2021/11/18 12:41:08;;;;;;;;;;;22.70;58.00;;;;;;5030892;28;1309;-68
2021/11/18 12:43:54;;;;;;;;;;;22.70;58.00;;;;;;5032101;28;1127;-66
2021/11/18 12:46:31;;;;;;;;;;;22.70;58.00;;;;;;5018416;28;1260;-67
2021/11/18 12:49:00;;;;;;;;;;;22.70;58.10;;;;;;5031301;28;1489;-68
2021/11/18 12:51:44;;;;;;;;;;;22.70;58.10;;;;;;5031995;28;1252;-66
2021/11/18 12:54:09;;;;;;;;;;;22.70;58.10;;;;;;5032083;28;1371;-67
2021/11/18 12:57:09;;;;;;;;;;;22.70;58.10;;;;;;5032679;28;1286;-68
2021/11/18 12:59:44;;;;;;;;;;;22.70;58.10;;;;;;5032342;28;1906;-67
2021/11/18 13:02:32;;;;;;;;;;;22.70;58.10;;;;;;5031721;28;1352;-67
2021/11/18 13:05:02;;;;;;;;;;;22.70;58.10;;;;;;5001820;28;1285;-67
2021/11/18 13:07:46;;;;;;;;;;;22.70;58.10;;;;;;5014720;28;1390;-69
2021/11/18 13:10:22;;;;;;;;;;;22.70;58.10;;;;;;5029034;28;1295;-68
2021/11/18 13:13:03;;;;;;;;;;;22.70;58.10;;;;;;5028987;28;1313;-71
2021/11/18 13:15:44;;;;;;;;;;;22.60;58.00;;;;;;5026985;28;1279;-69
2021/11/18 13:18:28;;;;;;;;;;;22.70;58.10;;;;;;5031336;28;1902;-69
2021/11/18 13:21:12;;;;;;;;;;;22.70;58.20;;;;;;5030783;28;1327;-69
2021/11/18 13:23:52;;;;;;;;;;;22.60;58.10;;;;;;5031404;28;1491;-69
2021/11/18 13:26:29;;;;;;;;;;;22.60;58.20;;;;;;5029645;28;1369;-69
2021/11/18 13:29:13;;;;;;;;;;;22.60;58.20;;;;;;5029972;28;1277;-69
2021/11/18 13:31:52;;;;;;;;;;;22.60;58.30;;;;;;5030417;28;1354;-69
2021/11/18 13:34:20;;;;;;;;;;;22.60;58.30;;;;;;5032651;28;1207;-69
2021/11/18 13:36:56;;;;;;;;;;;22.50;58.30;;;;;;5034975;28;1927;-70
2021/11/18 13:39:26;;;;;;;;;;;22.50;58.50;;;;;;5033353;28;1906;-69
2021/11/18 13:41:52;;;;;;;;;;;22.50;58.50;;;;;;5034811;28;1178;-68
2021/11/18 13:44:32;;;;;;;;;;;22.50;58.60;;;;;;5035934;28;1334;-69
2021/11/18 13:47:04;;;;;;;;;;;22.50;58.60;;;;;;5033541;28;1357;-69
2021/11/18 13:49:29;;;;;;;;;;;22.40;58.60;;;;;;5033610;28;1431;-69
2021/11/18 13:51:56;;;;;;;;;;;22.40;58.70;;;;;;5049251;28;1351;-69
2021/11/18 13:54:28;;;;;;;;;;;22.40;58.80;;;;;;5019979;28;1150;-70
2021/11/18 13:56:59;;;;;;;;;;;22.40;58.80;;;;;;5034694;28;1400;-69
2021/11/18 13:59:33;;;;;;;;;;;22.30;58.80;;;;;;5033173;28;1981;-70
2021/11/18 14:02:17;;;;;;;;;;;22.30;58.90;;;;;;5032450;28;1341;-69
2021/11/18 14:04:46;;;;;;;;;;;22.30;58.90;;;;;;5049939;28;1288;-70
2021/11/18 14:07:11;;;;;;;;;;;22.30;58.90;;;;;;5033387;28;1359;-70
2021/11/18 14:09:39;;;;;;;;;;;22.30;59.00;;;;;;5016048;28;1413;-70
2021/11/18 14:12:06;;;;;;;;;;;22.30;59.00;;;;;;5032268;28;1360;-69
2021/11/18 14:14:36;;;;;;;;;;;22.30;59.10;;;;;;5033489;28;1260;-69
2021/11/18 14:17:22;;;;;;;;;;;22.20;59.00;;;;;;5034038;28;1281;-69
2021/11/18 14:19:58;;;;;;;;;;;22.20;59.10;;;;;;5033662;28;1968;-69
2021/11/18 14:22:25;;;;;;;;;;;22.20;59.10;;;;;;5022628;28;1312;-69
2021/11/18 14:24:51;;;;;;;;;;;22.20;59.20;;;;;;5033616;28;1358;-69
2021/11/18 14:27:20;;;;;;;;;;;22.20;59.20;;;;;;5034292;28;1204;-69
2021/11/18 14:30:03;;;;;;;;;;;22.20;59.20;;;;;;5033858;28;1369;-69
2021/11/18 14:32:33;;;;;;;;;;;22.20;59.30;;;;;;5034563;28;1338;-68
2021/11/18 14:35:00;;;;;;;;;;;22.20;59.30;;;;;;5034036;28;1234;-69
2021/11/18 14:37:28;;;;;;;;;;;22.10;59.30;;;;;;5032935;28;1973;-68
2021/11/18 14:39:56;;;;;;;;;;;22.10;59.30;;;;;;5033676;28;1248;-68